createdAt,value
2023-04-02T00:00:17.923Z,73.06
2023-04-02T00:02:57.750Z,73.02
2023-04-02T00:05:34.811Z,72.75
2023-04-02T00:08:10.406Z,72.72
2023-04-02T00:10:46.971Z,72.78
2023-04-02T00:13:13.950Z,72.59
2023-04-02T00:15:46.449Z,72.94
2023-04-02T00:18:14.984Z,72.98
2023-04-02T00:20:43.054Z,72.76
2023-04-02T00:23:13.676Z,72.73
2023-04-02T00:25:43.456Z,72.69
2023-04-02T00:28:13.863Z,72.67
2023-04-02T00:31:01.405Z,72.81
2023-04-02T00:33:29.319Z,72.81
2023-04-02T00:35:56.228Z,72.65
2023-04-02T00:38:25.939Z,72.67
2023-04-02T00:40:53.341Z,72.57
2023-04-02T00:43:21.162Z,72.64
2023-04-02T00:45:51.217Z,72.58
2023-04-02T00:48:28.594Z,72.50
2023-04-02T00:50:55.691Z,72.58
2023-04-02T00:53:25.958Z,72.41
2023-04-02T00:55:52.829Z,72.37
2023-04-02T00:58:26.126Z,72.53
2023-04-02T01:00:53.152Z,72.30
2023-04-02T01:03:19.913Z,72.36
2023-04-02T01:06:16.571Z,72.30
2023-04-02T01:08:49.243Z,72.32
2023-04-02T01:11:44.106Z,72.46
2023-04-02T01:14:33.154Z,72.40
2023-04-02T01:17:30.685Z,72.35
2023-04-02T01:20:26.795Z,72.42
2023-04-02T01:23:17.287Z,72.46
2023-04-02T01:25:53.956Z,72.38
2023-04-02T01:28:46.553Z,72.25
2023-04-02T01:31:13.550Z,72.16
2023-04-02T01:33:40.424Z,71.96
2023-04-02T01:36:09.934Z,71.73
2023-04-02T01:38:44.249Z,71.66
2023-04-02T01:41:38.806Z,71.51
2023-04-02T01:44:09.897Z,71.56
2023-04-02T01:46:40.473Z,71.58
2023-04-02T01:49:12.823Z,71.90
2023-04-02T01:51:44.280Z,71.92
2023-04-02T01:54:11.390Z,71.91
2023-04-02T01:56:38.161Z,72.04
2023-04-02T01:59:06.198Z,71.96
2023-04-02T02:01:42.951Z,71.99
2023-04-02T02:04:14.003Z,71.76
2023-04-02T02:06:40.847Z,71.79
2023-04-02T02:09:07.667Z,71.64
2023-04-02T02:11:36.579Z,71.59
2023-04-02T02:14:12.656Z,71.49
2023-04-02T02:16:41.932Z,71.47
2023-04-02T02:19:33.690Z,71.17
2023-04-02T02:22:13.338Z,71.19
2023-04-02T02:24:40.151Z,70.99
2023-04-02T02:27:25.626Z,70.88
2023-04-02T02:30:16.541Z,70.75
2023-04-02T02:33:35.941Z,70.50
2023-04-02T02:36:05.700Z,70.42
2023-04-02T02:38:57.754Z,70.49
2023-04-02T02:41:27.872Z,70.13
2023-04-02T02:44:02.635Z,70.36
2023-04-02T02:46:29.890Z,70.09
2023-04-02T02:48:57.113Z,70.07
2023-04-02T02:51:40.225Z,70.03
2023-04-02T02:54:07.887Z,70.19
2023-04-02T02:56:34.983Z,69.74
2023-04-02T02:59:02.053Z,69.74
2023-04-02T03:01:29.855Z,70.00
2023-04-02T03:03:56.749Z,69.85
2023-04-02T03:06:23.688Z,69.74
2023-04-02T03:08:58.607Z,69.86
2023-04-02T03:11:57.930Z,69.91
2023-04-02T03:15:38.612Z,70.03
2023-04-02T03:18:18.401Z,70.02
2023-04-02T03:20:55.509Z,69.71
2023-04-02T03:23:29.646Z,69.43
2023-04-02T03:26:07.081Z,69.34
2023-04-02T03:28:37.721Z,69.49
2023-04-02T03:31:16.875Z,69.24
2023-04-02T03:33:51.563Z,69.52
2023-04-02T03:36:33.877Z,68.95
2023-04-02T03:39:09.002Z,68.90
2023-04-02T03:42:01.080Z,68.74
2023-04-02T03:44:28.948Z,68.59
2023-04-02T03:47:01.614Z,68.21
2023-04-02T03:49:44.085Z,68.13
2023-04-02T03:52:12.010Z,68.21
2023-04-02T03:54:39.201Z,68.22
2023-04-02T03:57:08.587Z,67.96
2023-04-02T03:59:44.875Z,68.09
2023-04-02T04:02:26.987Z,67.96
2023-04-02T04:04:54.173Z,68.11
2023-04-02T04:07:33.103Z,67.85
2023-04-02T04:09:59.978Z,68.19
2023-04-02T04:12:35.087Z,68.13
2023-04-02T04:15:08.096Z,68.20
2023-04-02T04:18:02.604Z,68.29
2023-04-02T04:20:40.621Z,68.42
2023-04-02T04:23:26.012Z,68.39
2023-04-02T04:26:19.931Z,68.66
2023-04-02T04:29:00.020Z,68.38
2023-04-02T04:31:50.178Z,68.52
2023-04-02T04:34:25.724Z,68.15
2023-04-02T04:37:01.742Z,68.41
2023-04-02T04:39:41.688Z,68.38
2023-04-02T04:42:08.354Z,68.75
2023-04-02T04:44:42.680Z,68.51
2023-04-02T04:47:18.231Z,68.44
2023-04-02T04:49:56.200Z,68.43
2023-04-02T04:52:29.189Z,68.47
2023-04-02T04:54:56.045Z,68.30
2023-04-02T04:57:36.531Z,68.44
2023-04-02T05:00:09.615Z,68.32
2023-04-02T05:02:41.568Z,68.55
2023-04-02T05:05:18.730Z,68.53
2023-04-02T05:07:49.269Z,68.26
2023-04-02T05:10:25.152Z,68.31
2023-04-02T05:12:59.776Z,68.37
2023-04-02T05:15:42.417Z,68.28
2023-04-02T05:18:18.208Z,67.98
2023-04-02T05:21:11.413Z,67.79
2023-04-02T05:24:08.902Z,67.94
2023-04-02T05:26:43.518Z,67.87
2023-04-02T05:29:24.111Z,67.70
2023-04-02T05:32:03.770Z,68.19
2023-04-02T05:34:34.481Z,67.91
2023-04-02T05:37:02.213Z,68.03
2023-04-02T05:39:29.591Z,67.97
2023-04-02T05:42:18.189Z,68.08
2023-04-02T05:45:07.808Z,68.18
2023-04-02T05:47:41.094Z,68.11
2023-04-02T05:50:08.087Z,68.00
2023-04-02T05:52:37.294Z,68.14
2023-04-02T05:55:13.223Z,68.25
2023-04-02T05:57:52.881Z,68.07
2023-04-02T06:00:37.831Z,68.30
2023-04-02T06:03:07.747Z,68.05
2023-04-02T06:05:37.369Z,68.00
2023-04-02T06:08:32.967Z,67.87
2023-04-02T06:11:33.225Z,67.65
2023-04-02T06:14:00.018Z,67.96
2023-04-02T06:16:28.406Z,68.15
2023-04-02T06:18:55.142Z,68.05
2023-04-02T06:21:22.586Z,68.05
2023-04-02T06:23:55.249Z,68.51
2023-04-02T06:26:35.429Z,68.38
2023-04-02T06:29:09.590Z,68.13
2023-04-02T06:31:42.697Z,67.99
2023-04-02T06:34:19.814Z,68.04
2023-04-02T06:36:46.739Z,68.07
2023-04-02T06:39:18.555Z,68.08
2023-04-02T06:41:45.816Z,67.87
2023-04-02T06:44:16.199Z,67.53
2023-04-02T06:46:50.561Z,67.96
2023-04-02T06:49:25.602Z,67.87
2023-04-02T06:51:53.827Z,67.96
2023-04-02T06:54:21.262Z,68.47
2023-04-02T06:56:52.842Z,68.97
2023-04-02T06:59:19.678Z,69.24
2023-04-02T07:01:49.589Z,69.02
2023-04-02T07:04:16.583Z,68.93
2023-04-02T07:06:43.521Z,68.72
2023-04-02T07:09:10.581Z,68.97
2023-04-02T07:11:37.606Z,69.33
2023-04-02T07:14:04.508Z,69.56
2023-04-02T07:16:32.802Z,69.51
2023-04-02T07:18:59.761Z,69.24
2023-04-02T07:21:27.067Z,69.44
2023-04-02T07:23:54.164Z,69.11
2023-04-02T07:26:23.606Z,68.67
2023-04-02T07:28:50.522Z,68.66
2023-04-02T07:31:19.136Z,68.59
2023-04-02T07:33:46.409Z,69.03
2023-04-02T07:36:14.795Z,69.15
2023-04-02T07:38:41.943Z,68.92
2023-04-02T07:41:08.998Z,68.38
2023-04-02T07:43:36.158Z,68.37
2023-04-02T07:46:04.315Z,67.18
2023-04-02T07:48:31.541Z,66.49
2023-04-02T07:50:58.916Z,66.21
2023-04-02T07:53:33.983Z,65.40
2023-04-02T07:56:02.322Z,65.18
2023-04-02T07:58:29.840Z,64.68
2023-04-02T08:00:57.100Z,64.14
2023-04-02T08:03:23.989Z,63.60
2023-04-02T08:05:52.605Z,62.77
2023-04-02T08:08:20.212Z,62.53
2023-04-02T08:10:47.262Z,62.02
2023-04-02T08:13:14.476Z,61.39
2023-04-02T08:15:41.418Z,61.17
2023-04-02T08:18:08.433Z,60.72
2023-04-02T08:20:35.205Z,60.16
2023-04-02T08:23:01.993Z,59.56
2023-04-02T08:25:28.929Z,59.15
2023-04-02T08:27:55.726Z,58.50
2023-04-02T08:30:22.674Z,57.72
2023-04-02T08:32:49.664Z,56.95
2023-04-02T08:35:16.927Z,56.19
2023-04-02T08:37:43.977Z,55.32
2023-04-02T08:40:44.176Z,53.88
2023-04-02T08:43:34.826Z,53.46
2023-04-02T08:46:14.107Z,53.36
2023-04-02T08:48:42.711Z,52.18
2023-04-02T08:51:22.739Z,51.21
2023-04-02T08:53:49.655Z,50.80
2023-04-02T08:56:24.170Z,49.00
2023-04-02T08:58:54.247Z,48.83
2023-04-02T09:01:51.982Z,47.68
2023-04-02T09:04:21.466Z,47.44
2023-04-02T09:06:48.533Z,49.48
2023-04-02T09:09:15.781Z,48.36
2023-04-02T09:12:05.543Z,47.34
2023-04-02T09:14:54.100Z,46.58
2023-04-02T09:17:22.600Z,46.59
2023-04-02T09:19:57.744Z,44.96
2023-04-02T09:22:31.887Z,44.40
2023-04-02T09:25:02.132Z,44.25
2023-04-02T09:27:30.980Z,43.63
2023-04-02T09:30:13.981Z,42.50
2023-04-02T09:32:51.853Z,42.13
2023-04-02T09:35:27.070Z,40.35
2023-04-02T09:38:16.278Z,38.83
2023-04-02T09:40:47.074Z,41.47
2023-04-02T09:43:18.865Z,40.30
2023-04-02T09:45:55.610Z,40.29
2023-04-02T09:48:26.534Z,39.19
2023-04-02T09:51:12.961Z,39.08
2023-04-02T09:53:42.586Z,38.85
2023-04-02T09:56:23.629Z,37.74
2023-04-02T09:59:06.437Z,37.18
2023-04-02T10:01:33.628Z,36.63
2023-04-02T10:04:00.718Z,35.77
2023-04-02T10:06:28.394Z,35.37
2023-04-02T10:08:55.647Z,35.41
2023-04-02T10:11:36.412Z,34.87
2023-04-02T10:14:18.369Z,34.73
2023-04-02T10:16:50.770Z,35.16
2023-04-02T10:19:34.101Z,34.92
2023-04-02T10:22:03.503Z,34.61
2023-04-02T10:24:30.342Z,34.37
2023-04-02T10:27:34.629Z,33.76
2023-04-02T10:30:07.563Z,33.35
2023-04-02T10:32:56.834Z,33.27
2023-04-02T10:36:05.202Z,33.22
2023-04-02T10:39:12.264Z,33.11
2023-04-02T10:41:47.993Z,32.36
2023-04-02T10:44:33.614Z,31.93
2023-04-02T10:47:06.684Z,31.06
2023-04-02T10:49:42.490Z,30.84
2023-04-02T10:52:29.078Z,30.10
2023-04-02T10:55:01.355Z,30.28
2023-04-02T10:57:37.618Z,30.29
2023-04-02T11:00:16.856Z,30.05
2023-04-02T11:03:11.443Z,29.67
2023-04-02T11:05:51.859Z,29.23
2023-04-02T11:08:27.715Z,29.29
2023-04-02T11:11:04.834Z,28.90
2023-04-02T11:13:52.342Z,29.46
2023-04-02T11:16:19.211Z,29.38
2023-04-02T11:19:08.273Z,28.38
2023-04-02T11:21:58.044Z,26.95
2023-04-02T11:24:37.383Z,26.99
2023-04-02T11:27:04.223Z,27.73
2023-04-02T11:29:31.189Z,28.38
2023-04-02T11:32:25.326Z,26.94
2023-04-02T11:35:05.869Z,27.83
2023-04-02T11:37:45.765Z,26.94
2023-04-02T11:40:12.995Z,27.00
2023-04-02T11:42:49.857Z,26.06
2023-04-02T11:45:22.684Z,25.95
2023-04-02T11:48:02.181Z,25.90
2023-04-02T11:50:40.468Z,25.55
2023-04-02T11:53:18.862Z,25.00
2023-04-02T11:55:46.635Z,24.70
2023-04-02T11:58:38.219Z,23.95
2023-04-02T12:01:30.149Z,23.70
2023-04-02T12:04:50.920Z,24.16
2023-04-02T12:07:36.524Z,23.63
2023-04-02T12:10:15.996Z,24.06
2023-04-02T12:12:43.281Z,23.97
2023-04-02T12:15:44.090Z,23.46
2023-04-02T12:18:13.736Z,23.97
2023-04-02T12:20:40.655Z,23.37
2023-04-02T12:23:16.427Z,22.99
2023-04-02T12:25:43.365Z,22.53
2023-04-02T12:28:10.058Z,22.40
2023-04-02T12:30:37.943Z,22.63
2023-04-02T12:33:37.689Z,22.94
2023-04-02T12:36:21.674Z,22.53
2023-04-02T12:38:55.238Z,22.63
2023-04-02T12:41:27.398Z,21.78
2023-04-02T12:44:01.588Z,21.19
2023-04-02T12:46:30.001Z,21.59
2023-04-02T12:49:00.268Z,22.52
2023-04-02T12:51:28.416Z,20.79
2023-04-02T12:53:55.512Z,19.77
2023-04-02T12:56:22.636Z,20.14
2023-04-02T12:58:56.869Z,19.13
2023-04-02T13:01:24.940Z,18.88
2023-04-02T13:04:07.340Z,18.81
2023-04-02T13:06:35.198Z,18.81
2023-04-02T13:09:03.841Z,18.78
2023-04-02T13:11:35.876Z,17.91
2023-04-02T13:14:03.570Z,18.58
2023-04-02T13:16:38.489Z,18.30
2023-04-02T13:19:20.992Z,17.30
2023-04-02T13:21:47.964Z,17.84
2023-04-02T13:24:19.344Z,17.96
2023-04-02T13:26:48.161Z,18.69
2023-04-02T13:29:22.831Z,19.30
2023-04-02T13:31:50.015Z,21.39
2023-04-02T13:34:18.025Z,23.10
2023-04-02T13:36:45.353Z,24.56
2023-04-02T13:39:12.186Z,25.58
2023-04-02T13:41:47.315Z,26.89
2023-04-02T13:44:33.433Z,28.00
2023-04-02T13:47:01.383Z,28.54
2023-04-02T13:49:28.346Z,30.02
2023-04-02T13:51:58.936Z,30.40
2023-04-02T13:54:48.978Z,30.28
2023-04-02T13:57:15.958Z,30.57
2023-04-02T13:59:42.762Z,31.80
2023-04-02T14:02:17.991Z,32.14
2023-04-02T14:04:50.492Z,32.05
2023-04-02T14:07:27.719Z,33.39
2023-04-02T14:10:27.943Z,33.95
2023-04-02T14:13:00.907Z,35.09
2023-04-02T14:15:46.036Z,34.66
2023-04-02T14:18:12.746Z,34.91
2023-04-02T14:20:54.328Z,35.21
2023-04-02T14:23:33.390Z,34.74
2023-04-02T14:26:15.493Z,34.59
2023-04-02T14:28:57.747Z,34.49
2023-04-02T14:31:31.719Z,34.68
2023-04-02T14:34:17.524Z,35.21
2023-04-02T14:37:15.626Z,35.37
2023-04-02T14:40:00.942Z,35.66
2023-04-02T14:42:39.844Z,35.89
2023-04-02T14:45:31.004Z,35.85
2023-04-02T14:48:22.614Z,35.89
2023-04-02T14:50:49.532Z,35.90
2023-04-02T14:53:20.766Z,36.17
2023-04-02T14:55:48.561Z,36.12
2023-04-02T14:58:31.735Z,36.24
2023-04-02T15:01:14.192Z,36.32
2023-04-02T15:03:54.553Z,36.16
2023-04-02T15:06:36.928Z,36.61
2023-04-02T15:09:42.667Z,36.64
2023-04-02T15:12:12.490Z,36.63
2023-04-02T15:14:42.210Z,36.79
2023-04-02T15:17:12.199Z,36.83
2023-04-02T15:19:39.068Z,36.82
2023-04-02T15:22:21.235Z,36.78
2023-04-02T15:24:57.941Z,36.71
2023-04-02T15:27:46.093Z,36.86
2023-04-02T15:30:20.719Z,36.90
2023-04-02T15:32:47.608Z,36.98
2023-04-02T15:35:17.317Z,37.31
2023-04-02T15:38:16.697Z,37.68
2023-04-02T15:41:05.244Z,37.82
2023-04-02T15:43:39.264Z,38.19
2023-04-02T15:46:09.385Z,38.38
2023-04-02T15:48:57.909Z,38.81
2023-04-02T15:51:39.066Z,38.87
2023-04-02T15:54:16.682Z,38.59
2023-04-02T15:56:52.536Z,38.72
2023-04-02T15:59:34.453Z,39.92
2023-04-02T16:02:22.442Z,39.56
2023-04-02T16:05:27.579Z,39.09
2023-04-02T16:08:17.060Z,39.50
2023-04-02T16:10:45.626Z,39.18
2023-04-02T16:13:28.784Z,39.40
2023-04-02T16:16:06.724Z,39.42
2023-04-02T16:18:37.905Z,39.82
2023-04-02T16:21:04.719Z,39.80
2023-04-02T16:23:36.539Z,39.69
2023-04-02T16:26:06.191Z,39.67
2023-04-02T16:28:36.820Z,39.53
2023-04-02T16:31:41.570Z,39.31
2023-04-02T16:34:11.542Z,38.84
2023-04-02T16:36:42.350Z,38.39
2023-04-02T16:39:18.221Z,38.16
2023-04-02T16:41:50.853Z,38.16
2023-04-02T16:44:42.112Z,37.84
2023-04-02T16:47:28.877Z,37.49
2023-04-02T16:50:22.061Z,37.23
2023-04-02T16:53:24.573Z,37.54
2023-04-02T16:56:10.129Z,37.65
2023-04-02T16:58:52.330Z,37.10
2023-04-02T17:01:30.314Z,37.25
2023-04-02T17:04:08.356Z,37.30
2023-04-02T17:06:42.906Z,37.40
2023-04-02T17:09:18.461Z,37.60
2023-04-02T17:11:50.583Z,37.74
2023-04-02T17:14:24.852Z,38.13
2023-04-02T17:16:56.718Z,38.12
2023-04-02T17:19:25.252Z,38.28
2023-04-02T17:21:53.348Z,38.55
2023-04-02T17:24:21.946Z,38.67
2023-04-02T17:26:54.555Z,39.05
2023-04-02T17:29:30.028Z,39.01
2023-04-02T17:32:00.772Z,38.90
2023-04-02T17:34:28.231Z,39.18
2023-04-02T17:37:46.516Z,38.95
2023-04-02T17:40:22.775Z,39.40
2023-04-02T17:43:08.187Z,39.55
2023-04-02T17:45:56.500Z,39.52
2023-04-02T17:48:29.740Z,39.93
2023-04-02T17:51:05.600Z,40.01
2023-04-02T17:53:40.509Z,40.30
2023-04-02T17:56:19.404Z,40.46
2023-04-02T17:58:58.759Z,40.44
2023-04-02T18:01:34.593Z,40.70
2023-04-02T18:04:10.918Z,40.30
2023-04-02T18:06:45.490Z,39.94
2023-04-02T18:09:12.440Z,39.03
2023-04-02T18:11:59.758Z,38.34
2023-04-02T18:14:55.939Z,37.33
2023-04-02T18:17:46.202Z,36.76
2023-04-02T18:20:19.620Z,35.86
2023-04-02T18:22:58.554Z,35.51
2023-04-02T18:25:35.916Z,35.75
2023-04-02T18:28:17.927Z,35.78
2023-04-02T18:30:56.406Z,35.90
2023-04-02T18:34:05.243Z,36.86
2023-04-02T18:36:44.680Z,37.05
2023-04-02T18:39:35.878Z,37.29
2023-04-02T18:42:37.949Z,38.09
2023-04-02T18:45:04.693Z,37.88
2023-04-02T18:47:56.204Z,38.53
2023-04-02T18:50:36.604Z,39.05
2023-04-02T18:53:19.919Z,39.40
2023-04-02T18:55:49.746Z,39.44
2023-04-02T18:58:21.503Z,39.36
2023-04-02T19:00:48.618Z,39.74
2023-04-02T19:03:33.154Z,40.02
2023-04-02T19:06:07.846Z,40.36
2023-04-02T19:08:40.579Z,40.76
2023-04-02T19:11:28.944Z,41.08
2023-04-02T19:13:58.900Z,41.26
2023-04-02T19:16:28.728Z,41.55
2023-04-02T19:18:59.345Z,41.84
2023-04-02T19:21:47.503Z,42.18
2023-04-02T19:24:26.412Z,42.41
2023-04-02T19:27:05.166Z,42.89
2023-04-02T19:29:42.255Z,42.75
2023-04-02T19:32:44.864Z,42.94
2023-04-02T19:35:29.087Z,43.36
2023-04-02T19:38:17.322Z,43.79
2023-04-02T19:40:51.674Z,43.88
2023-04-02T19:43:18.758Z,43.71
2023-04-02T19:45:49.696Z,44.38
2023-04-02T19:48:21.975Z,44.27
2023-04-02T19:50:48.838Z,44.55
2023-04-02T19:53:17.075Z,44.82
2023-04-02T19:55:44.088Z,44.82
2023-04-02T19:58:31.721Z,45.12
2023-04-02T20:00:58.864Z,45.35
2023-04-02T20:03:25.864Z,45.50
2023-04-02T20:05:52.824Z,45.58
2023-04-02T20:08:19.752Z,45.52
2023-04-02T20:10:46.576Z,45.95
2023-04-02T20:13:13.747Z,46.24
2023-04-02T20:15:41.233Z,46.19
2023-04-02T20:18:08.082Z,46.31
2023-04-02T20:20:35.039Z,46.21
2023-04-02T20:23:02.095Z,46.31
2023-04-02T20:25:28.890Z,46.42
2023-04-02T20:27:55.645Z,46.43
2023-04-02T20:30:22.488Z,46.27
2023-04-02T20:32:49.403Z,46.58
2023-04-02T20:35:16.355Z,46.87
2023-04-02T20:37:43.313Z,46.96
2023-04-02T20:40:13.147Z,46.99
2023-04-02T20:42:40.036Z,46.86
2023-04-02T20:45:08.697Z,47.08
2023-04-02T20:47:35.765Z,46.99
2023-04-02T20:50:02.553Z,47.13
2023-04-02T20:52:30.514Z,47.02
2023-04-02T20:54:57.608Z,47.00
2023-04-02T20:57:26.333Z,47.01
2023-04-02T20:59:54.679Z,47.27
2023-04-02T21:02:21.613Z,47.22
2023-04-02T21:04:48.531Z,47.03
2023-04-02T21:07:15.748Z,46.72
2023-04-02T21:09:42.526Z,47.05
2023-04-02T21:12:12.287Z,47.23
2023-04-02T21:14:41.930Z,47.10
2023-04-02T21:17:09.006Z,46.88
2023-04-02T21:19:35.989Z,47.20
2023-04-02T21:22:03.555Z,47.61
2023-04-02T21:24:30.418Z,47.66
2023-04-02T21:26:57.199Z,47.69
2023-04-02T21:29:24.241Z,47.75
2023-04-02T21:31:51.095Z,47.90
2023-04-02T21:34:17.885Z,47.80
2023-04-02T21:36:46.052Z,47.89
2023-04-02T21:39:23.245Z,48.31
2023-04-02T21:41:51.377Z,47.95
2023-04-02T21:44:19.908Z,48.34
2023-04-02T21:46:46.975Z,48.35
2023-04-02T21:49:15.832Z,48.59
2023-04-02T21:51:42.893Z,48.66
2023-04-02T21:54:09.829Z,48.67
2023-04-02T21:56:38.110Z,48.79
2023-04-02T21:59:05.496Z,48.90
2023-04-02T22:01:34.463Z,48.94
2023-04-02T22:04:03.115Z,49.15
2023-04-02T22:06:31.711Z,49.22
2023-04-02T22:09:04.308Z,49.22
2023-04-02T22:11:32.973Z,49.18
2023-04-02T22:13:59.915Z,49.37
2023-04-02T22:16:28.092Z,49.58
2023-04-02T22:18:57.333Z,49.63
2023-04-02T22:21:25.774Z,49.67
2023-04-02T22:23:52.894Z,49.63
2023-04-02T22:26:20.846Z,49.83
2023-04-02T22:28:47.687Z,50.07
2023-04-02T22:31:19.395Z,50.22
2023-04-02T22:33:46.515Z,50.39
2023-04-02T22:36:13.683Z,49.99
2023-04-02T22:38:40.987Z,49.89
2023-04-02T22:41:12.999Z,49.94
2023-04-02T22:43:40.801Z,49.95
2023-04-02T22:46:08.736Z,50.00
2023-04-02T22:48:36.267Z,49.76
2023-04-02T22:51:03.375Z,49.61
2023-04-02T22:53:30.114Z,49.71
2023-04-02T22:56:02.375Z,49.45
2023-04-02T22:58:30.044Z,49.15
2023-04-02T23:00:56.844Z,49.09
2023-04-02T23:03:23.612Z,48.81
2023-04-02T23:06:10.695Z,48.62
2023-04-02T23:08:37.717Z,48.54
2023-04-02T23:11:06.836Z,48.31
2023-04-02T23:13:33.857Z,48.26
2023-04-02T23:16:02.079Z,48.25
2023-04-02T23:18:29.835Z,48.42
2023-04-02T23:20:56.825Z,48.07
2023-04-02T23:23:24.396Z,48.25
2023-04-02T23:25:51.179Z,48.30
2023-04-02T23:28:18.126Z,48.21
2023-04-02T23:30:45.011Z,48.62
2023-04-02T23:33:11.921Z,48.83
2023-04-02T23:35:38.776Z,48.90
2023-04-02T23:38:07.858Z,49.04
2023-04-02T23:40:35.106Z,49.29
2023-04-02T23:43:02.156Z,49.40
2023-04-02T23:45:28.929Z,49.54
2023-04-02T23:47:56.012Z,49.67
2023-04-02T23:50:22.772Z,49.82
2023-04-02T23:52:49.515Z,50.10
2023-04-02T23:55:16.412Z,50.25
2023-04-02T23:57:43.141Z,50.49
